sensor_id;sensor_type;location;lat;lon;timestamp;pressure;altitude;pressure_sealevel;temperature;humidity
70338;BME280;57757;53.198;19.646;2022-12-07T00:01:38;99450.97;;;3.39;74.27
70338;BME280;57757;53.198;19.646;2022-12-07T00:04:09;99453.05;;;3.36;74.32
70338;BME280;57757;53.198;19.646;2022-12-07T00:06:42;99448.25;;;3.36;74.53
70338;BME280;57757;53.198;19.646;2022-12-07T00:09:13;99446.70;;;3.36;74.53
70338;BME280;57757;53.198;19.646;2022-12-07T00:11:41;99442.91;;;3.33;74.33
70338;BME280;57757;53.198;19.646;2022-12-07T00:14:14;99445.85;;;3.32;74.51
70338;BME280;57757;53.198;19.646;2022-12-07T00:16:42;99445.89;;;3.26;74.42
70338;BME280;57757;53.198;19.646;2022-12-07T00:19:12;99443.34;;;3.24;74.37
70338;BME280;57757;53.198;19.646;2022-12-07T00:21:41;99438.02;;;3.20;74.37
70338;BME280;57757;53.198;19.646;2022-12-07T00:24:10;99436.66;;;3.17;74.36
70338;BME280;57757;53.198;19.646;2022-12-07T00:26:39;99437.02;;;3.16;74.34
70338;BME280;57757;53.198;19.646;2022-12-07T00:29:13;99439.08;;;3.15;74.63
70338;BME280;57757;53.198;19.646;2022-12-07T00:31:42;99437.19;;;3.14;74.57
70338;BME280;57757;53.198;19.646;2022-12-07T00:34:16;99436.70;;;3.11;74.52
70338;BME280;57757;53.198;19.646;2022-12-07T00:36:43;99432.77;;;3.08;74.58
70338;BME280;57757;53.198;19.646;2022-12-07T00:39:11;99428.99;;;3.07;74.36
70338;BME280;57757;53.198;19.646;2022-12-07T00:41:39;99429.52;;;3.04;74.36
70338;BME280;57757;53.198;19.646;2022-12-07T00:44:06;99432.62;;;3.03;74.44
70338;BME280;57757;53.198;19.646;2022-12-07T00:46:34;99434.52;;;3.00;74.57
70338;BME280;57757;53.198;19.646;2022-12-07T00:49:01;99430.58;;;2.98;74.51
70338;BME280;57757;53.198;19.646;2022-12-07T00:51:29;99430.60;;;2.95;74.56
70338;BME280;57757;53.198;19.646;2022-12-07T00:53:56;99425.29;;;2.93;74.48
70338;BME280;57757;53.198;19.646;2022-12-07T00:56:26;99421.52;;;2.94;74.49
70338;BME280;57757;53.198;19.646;2022-12-07T00:58:59;99418.05;;;2.96;74.60
70338;BME280;57757;53.198;19.646;2022-12-07T01:01:30;99418.89;;;3.00;74.63
70338;BME280;57757;53.198;19.646;2022-12-07T01:03:58;99417.36;;;2.98;74.58
70338;BME280;57757;53.198;19.646;2022-12-07T01:06:29;99420.45;;;2.96;74.53
70338;BME280;57757;53.198;19.646;2022-12-07T01:08:58;99418.60;;;2.94;74.58
70338;BME280;57757;53.198;19.646;2022-12-07T01:11:28;99417.23;;;2.85;74.28
70338;BME280;57757;53.198;19.646;2022-12-07T01:13:57;99415.73;;;2.78;74.33
70338;BME280;57757;53.198;19.646;2022-12-07T01:16:27;99412.34;;;2.71;74.27
70338;BME280;57757;53.198;19.646;2022-12-07T01:18:56;99406.33;;;2.68;74.49
70338;BME280;57757;53.198;19.646;2022-12-07T01:21:27;99406.69;;;2.67;74.48
70338;BME280;57757;53.198;19.646;2022-12-07T01:23:57;99401.71;;;2.65;74.52
70338;BME280;57757;53.198;19.646;2022-12-07T01:26:25;99394.35;;;2.62;74.59
70338;BME280;57757;53.198;19.646;2022-12-07T01:28:53;99393.66;;;2.60;74.59
70338;BME280;57757;53.198;19.646;2022-12-07T01:31:24;99387.83;;;2.59;74.73
70338;BME280;57757;53.198;19.646;2022-12-07T01:33:55;99386.98;;;2.59;74.60
70338;BME280;57757;53.198;19.646;2022-12-07T01:36:32;99384.92;;;2.59;74.69
70338;BME280;57757;53.198;19.646;2022-12-07T01:39:02;99383.38;;;2.58;74.58
70338;BME280;57757;53.198;19.646;2022-12-07T01:41:32;99382.19;;;2.56;74.63
70338;BME280;57757;53.198;19.646;2022-12-07T01:44:25;99377.03;;;2.55;74.71
70338;BME280;57757;53.198;19.646;2022-12-07T01:46:59;99372.58;;;2.56;74.85
70338;BME280;57757;53.198;19.646;2022-12-07T01:52:13;99374.45;;;2.57;74.86
70338;BME280;57757;53.198;19.646;2022-12-07T01:54:42;99373.41;;;2.60;74.75
70338;BME280;57757;53.198;19.646;2022-12-07T01:57:11;99368.61;;;2.58;74.70
70338;BME280;57757;53.198;19.646;2022-12-07T01:59:39;99363.80;;;2.57;74.80
70338;BME280;57757;53.198;19.646;2022-12-07T02:02:13;99357.98;;;2.54;74.69
70338;BME280;57757;53.198;19.646;2022-12-07T02:04:46;99361.94;;;2.54;74.80
70338;BME280;57757;53.198;19.646;2022-12-07T02:07:14;99364.01;;;2.53;74.79
70338;BME280;57757;53.198;19.646;2022-12-07T02:09:42;99358.50;;;2.53;74.82
70338;BME280;57757;53.198;19.646;2022-12-07T02:12:09;99358.33;;;2.54;74.78
70338;BME280;57757;53.198;19.646;2022-12-07T02:14:37;99357.98;;;2.55;74.84
70338;BME280;57757;53.198;19.646;2022-12-07T02:17:21;99354.03;;;2.54;74.72
70338;BME280;57757;53.198;19.646;2022-12-07T02:23:09;99349.78;;;2.49;74.85
70338;BME280;57757;53.198;19.646;2022-12-07T02:26:19;99346.70;;;2.45;74.75
70338;BME280;57757;53.198;19.646;2022-12-07T02:31:28;99336.09;;;2.40;74.72
70338;BME280;57757;53.198;19.646;2022-12-07T02:34:08;99333.67;;;2.42;74.89
70338;BME280;57757;53.198;19.646;2022-12-07T02:36:42;99333.69;;;2.39;74.58
70338;BME280;57757;53.198;19.646;2022-12-07T02:39:20;99332.50;;;2.36;74.75
70338;BME280;57757;53.198;19.646;2022-12-07T02:42:00;99332.15;;;2.34;74.88
70338;BME280;57757;53.198;19.646;2022-12-07T02:44:31;99328.73;;;2.33;74.62
70338;BME280;57757;53.198;19.646;2022-12-07T02:47:03;99325.48;;;2.32;74.68
70338;BME280;57757;53.198;19.646;2022-12-07T02:49:33;99320.66;;;2.34;74.76
70338;BME280;57757;53.198;19.646;2022-12-07T02:52:00;99320.16;;;2.33;74.65
70338;BME280;57757;53.198;19.646;2022-12-07T02:54:28;99318.46;;;2.28;74.60
70338;BME280;57757;53.198;19.646;2022-12-07T02:57:24;99317.44;;;2.24;74.71
70338;BME280;57757;53.198;19.646;2022-12-07T03:09:17;99302.21;;;2.18;74.81
70338;BME280;57757;53.198;19.646;2022-12-07T03:11:46;99302.05;;;2.17;74.88
70338;BME280;57757;53.198;19.646;2022-12-07T03:14:21;99299.48;;;2.18;75.05
70338;BME280;57757;53.198;19.646;2022-12-07T03:16:55;99300.15;;;2.17;74.90
70338;BME280;57757;53.198;19.646;2022-12-07T03:19:26;99297.23;;;2.18;74.93
70338;BME280;57757;53.198;19.646;2022-12-07T03:22:00;99297.91;;;2.19;74.87
70338;BME280;57757;53.198;19.646;2022-12-07T03:27:33;99293.95;;;2.23;75.01
70338;BME280;57757;53.198;19.646;2022-12-07T03:30:13;99293.08;;;2.25;74.99
70338;BME280;57757;53.198;19.646;2022-12-07T03:36:00;99289.30;;;2.28;75.06
70338;BME280;57757;53.198;19.646;2022-12-07T03:38:53;99289.64;;;2.28;75.06
70338;BME280;57757;53.198;19.646;2022-12-07T03:41:29;99287.41;;;2.26;74.79
70338;BME280;57757;53.198;19.646;2022-12-07T03:43:58;99282.10;;;2.25;74.81
70338;BME280;57757;53.198;19.646;2022-12-07T03:58:11;99271.13;;;2.25;74.96
70338;BME280;57757;53.198;19.646;2022-12-07T04:00:41;99269.07;;;2.24;74.81
70338;BME280;57757;53.198;19.646;2022-12-07T04:03:10;99265.46;;;2.24;74.87
70338;BME280;57757;53.198;19.646;2022-12-07T04:05:39;99261.52;;;2.25;74.98
70338;BME280;57757;53.198;19.646;2022-12-07T04:08:07;99258.25;;;2.28;74.97
70338;BME280;57757;53.198;19.646;2022-12-07T04:10:35;99256.19;;;2.28;74.88
70338;BME280;57757;53.198;19.646;2022-12-07T04:13:02;99257.05;;;2.26;74.86
70338;BME280;57757;53.198;19.646;2022-12-07T04:15:30;99256.55;;;2.24;74.78
70338;BME280;57757;53.198;19.646;2022-12-07T04:17:57;99255.35;;;2.24;74.99
70338;BME280;57757;53.198;19.646;2022-12-07T04:20:25;99252.09;;;2.25;75.00
70338;BME280;57757;53.198;19.646;2022-12-07T04:22:53;99252.59;;;2.25;74.90
70338;BME280;57757;53.198;19.646;2022-12-07T04:25:20;99253.61;;;2.28;75.02
70338;BME280;57757;53.198;19.646;2022-12-07T04:27:48;99251.04;;;2.29;75.05
70338;BME280;57757;53.198;19.646;2022-12-07T04:30:16;99249.99;;;2.30;75.01
70338;BME280;57757;53.198;19.646;2022-12-07T04:32:43;99245.88;;;2.32;74.89
70338;BME280;57757;53.198;19.646;2022-12-07T04:35:11;99244.33;;;2.30;74.85
70338;BME280;57757;53.198;19.646;2022-12-07T04:37:38;99242.81;;;2.25;74.81
70338;BME280;57757;53.198;19.646;2022-12-07T04:40:07;99243.35;;;2.20;74.78
70338;BME280;57757;53.198;19.646;2022-12-07T04:42:35;99241.34;;;2.13;74.73
70338;BME280;57757;53.198;19.646;2022-12-07T04:45:03;99237.41;;;2.07;74.64
70338;BME280;57757;53.198;19.646;2022-12-07T04:47:31;99235.20;;;2.05;74.73
70338;BME280;57757;53.198;19.646;2022-12-07T04:49:59;99234.36;;;2.03;74.69
70338;BME280;57757;53.198;19.646;2022-12-07T04:52:27;99233.33;;;2.01;74.73
70338;BME280;57757;53.198;19.646;2022-12-07T04:54:54;99230.94;;;1.97;74.70
70338;BME280;57757;53.198;19.646;2022-12-07T04:57:22;99227.52;;;1.94;74.89
70338;BME280;57757;53.198;19.646;2022-12-07T04:59:49;99228.91;;;1.91;74.79
70338;BME280;57757;53.198;19.646;2022-12-07T05:02:17;99225.16;;;1.86;74.76
70338;BME280;57757;53.198;19.646;2022-12-07T05:04:45;99221.73;;;1.85;75.02
70338;BME280;57757;53.198;19.646;2022-12-07T05:07:12;99217.63;;;1.84;74.90
70338;BME280;57757;53.198;19.646;2022-12-07T05:09:40;99214.89;;;1.83;74.90
70338;BME280;57757;53.198;19.646;2022-12-07T05:12:07;99207.52;;;1.81;75.02
70338;BME280;57757;53.198;19.646;2022-12-07T05:14:35;99207.17;;;1.80;75.18
70338;BME280;57757;53.198;19.646;2022-12-07T05:17:02;99209.59;;;1.77;74.98
70338;BME280;57757;53.198;19.646;2022-12-07T05:19:31;99208.58;;;1.74;75.03
70338;BME280;57757;53.198;19.646;2022-12-07T05:21:58;99204.65;;;1.72;75.18
70338;BME280;57757;53.198;19.646;2022-12-07T05:24:26;99204.83;;;1.70;75.05
70338;BME280;57757;53.198;19.646;2022-12-07T05:26:53;99205.16;;;1.69;75.06
70338;BME280;57757;53.198;19.646;2022-12-07T05:29:21;99204.80;;;1.70;75.23
70338;BME280;57757;53.198;19.646;2022-12-07T05:31:49;99201.23;;;1.70;75.34
70338;BME280;57757;53.198;19.646;2022-12-07T05:34:16;99204.47;;;1.69;75.35
70338;BME280;57757;53.198;19.646;2022-12-07T05:36:44;99199.85;;;1.69;75.31
70338;BME280;57757;53.198;19.646;2022-12-07T05:39:11;99199.16;;;1.70;75.32
70338;BME280;57757;53.198;19.646;2022-12-07T05:41:39;99203.45;;;1.70;75.26
70338;BME280;57757;53.198;19.646;2022-12-07T05:44:22;99198.49;;;1.67;75.15
70338;BME280;57757;53.198;19.646;2022-12-07T05:46:50;99198.16;;;1.64;75.33
70338;BME280;57757;53.198;19.646;2022-12-07T05:49:17;99197.13;;;1.62;75.48
70338;BME280;57757;53.198;19.646;2022-12-07T05:51:45;99197.65;;;1.63;75.68
70338;BME280;57757;53.198;19.646;2022-12-07T05:54:13;99201.58;;;1.65;75.65
70338;BME280;57757;53.198;19.646;2022-12-07T05:56:40;99197.98;;;1.66;75.67
70338;BME280;57757;53.198;19.646;2022-12-07T05:59:08;99199.86;;;1.67;75.58
70338;BME280;57757;53.198;19.646;2022-12-07T06:04:22;99197.48;;;1.64;75.73
70338;BME280;57757;53.198;19.646;2022-12-07T06:06:49;99190.11;;;1.64;75.70
70338;BME280;57757;53.198;19.646;2022-12-07T06:09:19;99190.95;;;1.66;75.62
70338;BME280;57757;53.198;19.646;2022-12-07T06:11:47;99188.72;;;1.68;75.78
70338;BME280;57757;53.198;19.646;2022-12-07T06:14:31;99191.61;;;1.71;76.04
70338;BME280;57757;53.198;19.646;2022-12-07T06:17:00;99189.55;;;1.74;76.04
70338;BME280;57757;53.198;19.646;2022-12-07T06:19:28;99189.53;;;1.77;75.94
70338;BME280;57757;53.198;19.646;2022-12-07T06:21:56;99189.35;;;1.82;76.01
70338;BME280;57757;53.198;19.646;2022-12-07T06:24:24;99191.89;;;1.87;75.99
70338;BME280;57757;53.198;19.646;2022-12-07T06:26:52;99187.94;;;1.88;75.95
70338;BME280;57757;53.198;19.646;2022-12-07T06:29:19;99188.98;;;1.87;76.05
70338;BME280;57757;53.198;19.646;2022-12-07T06:31:47;99186.92;;;1.87;75.98
70338;BME280;57757;53.198;19.646;2022-12-07T06:34:17;99188.45;;;1.89;76.05
70338;BME280;57757;53.198;19.646;2022-12-07T06:36:52;99191.88;;;1.91;76.03
70338;BME280;57757;53.198;19.646;2022-12-07T06:39:25;99188.44;;;1.92;76.18
70338;BME280;57757;53.198;19.646;2022-12-07T06:41:55;99190.33;;;1.93;76.11
70338;BME280;57757;53.198;19.646;2022-12-07T06:44:23;99192.55;;;1.93;76.17
70338;BME280;57757;53.198;19.646;2022-12-07T06:46:51;99191.01;;;1.95;76.15
70338;BME280;57757;53.198;19.646;2022-12-07T06:49:39;99193.56;;;1.98;76.27
70338;BME280;57757;53.198;19.646;2022-12-07T06:52:07;99191.84;;;2.02;76.36
70338;BME280;57757;53.198;19.646;2022-12-07T06:54:34;99190.61;;;2.06;76.44
70338;BME280;57757;53.198;19.646;2022-12-07T06:57:02;99191.27;;;2.08;76.49
70338;BME280;57757;53.198;19.646;2022-12-07T06:59:30;99189.91;;;2.10;76.44
70338;BME280;57757;53.198;19.646;2022-12-07T07:01:57;99186.29;;;2.12;76.29
70338;BME280;57757;53.198;19.646;2022-12-07T07:04:28;99184.55;;;2.15;76.44
70338;BME280;57757;53.198;19.646;2022-12-07T07:06:55;99183.51;;;2.18;76.45
70338;BME280;57757;53.198;19.646;2022-12-07T07:09:26;99184.85;;;2.21;76.37
70338;BME280;57757;53.198;19.646;2022-12-07T07:11:54;99178.67;;;2.23;76.42
70338;BME280;57757;53.198;19.646;2022-12-07T07:14:22;99178.84;;;2.24;76.44
70338;BME280;57757;53.198;19.646;2022-12-07T07:16:49;99176.95;;;2.25;76.41
70338;BME280;57757;53.198;19.646;2022-12-07T07:19:17;99175.56;;;2.27;76.40
70338;BME280;57757;53.198;19.646;2022-12-07T07:21:45;99175.39;;;2.29;76.37
70338;BME280;57757;53.198;19.646;2022-12-07T07:24:13;99178.11;;;2.31;76.40
70338;BME280;57757;53.198;19.646;2022-12-07T07:26:40;99174.16;;;2.32;76.43
70338;BME280;57757;53.198;19.646;2022-12-07T07:29:08;99178.95;;;2.33;76.50
70338;BME280;57757;53.198;19.646;2022-12-07T07:31:35;99178.60;;;2.35;76.44
70338;BME280;57757;53.198;19.646;2022-12-07T07:34:04;99179.97;;;2.36;76.43
70338;BME280;57757;53.198;19.646;2022-12-07T07:36:32;99176.36;;;2.37;76.44
70338;BME280;57757;53.198;19.646;2022-12-07T07:38:59;99177.38;;;2.40;76.51
70338;BME280;57757;53.198;19.646;2022-12-07T07:41:27;99180.62;;;2.40;76.32
70338;BME280;57757;53.198;19.646;2022-12-07T07:43:55;99182.36;;;2.38;76.34
70338;BME280;57757;53.198;19.646;2022-12-07T07:46:22;99182.91;;;2.34;76.21
70338;BME280;57757;53.198;19.646;2022-12-07T07:48:50;99186.34;;;2.32;76.35
70338;BME280;57757;53.198;19.646;2022-12-07T07:51:17;99188.73;;;2.34;76.34
70338;BME280;57757;53.198;19.646;2022-12-07T07:53:45;99187.19;;;2.34;76.39
70338;BME280;57757;53.198;19.646;2022-12-07T07:56:13;99188.91;;;2.31;76.28
70338;BME280;57757;53.198;19.646;2022-12-07T07:58:44;99186.89;;;2.29;76.42
70338;BME280;57757;53.198;19.646;2022-12-07T08:01:11;99186.71;;;2.28;76.33
70338;BME280;57757;53.198;19.646;2022-12-07T08:03:41;99189.45;;;2.26;76.38
70338;BME280;57757;53.198;19.646;2022-12-07T08:06:08;99186.36;;;2.27;76.56
70338;BME280;57757;53.198;19.646;2022-12-07T08:08:36;99189.80;;;2.26;76.55
70338;BME280;57757;53.198;19.646;2022-12-07T08:11:08;99194.80;;;2.22;76.34
70338;BME280;57757;53.198;19.646;2022-12-07T08:13:36;99196.55;;;2.17;76.33
70338;BME280;57757;53.198;19.646;2022-12-07T08:16:06;99198.29;;;2.13;76.38
70338;BME280;57757;53.198;19.646;2022-12-07T08:18:37;99194.86;;;2.11;76.45
70338;BME280;57757;53.198;19.646;2022-12-07T08:21:07;99197.62;;;2.09;76.35
70338;BME280;57757;53.198;19.646;2022-12-07T08:23:34;99199.88;;;2.05;76.38
70338;BME280;57757;53.198;19.646;2022-12-07T08:26:10;99198.53;;;1.99;76.26
70338;BME280;57757;53.198;19.646;2022-12-07T08:28:38;99207.11;;;1.95;76.21
70338;BME280;57757;53.198;19.646;2022-12-07T08:31:10;99200.45;;;1.91;76.17
70338;BME280;57757;53.198;19.646;2022-12-07T08:33:40;99202.16;;;1.89;76.33
70338;BME280;57757;53.198;19.646;2022-12-07T08:36:09;99206.29;;;1.87;76.19
70338;BME280;57757;53.198;19.646;2022-12-07T08:38:39;99210.60;;;1.83;76.16
70338;BME280;57757;53.198;19.646;2022-12-07T08:41:18;99211.97;;;1.82;76.25
70338;BME280;57757;53.198;19.646;2022-12-07T08:43:46;99211.46;;;1.82;76.25
70338;BME280;57757;53.198;19.646;2022-12-07T08:46:25;99214.89;;;1.81;76.28
70338;BME280;57757;53.198;19.646;2022-12-07T08:48:58;99210.61;;;1.78;76.13
70338;BME280;57757;53.198;19.646;2022-12-07T08:51:29;99211.84;;;1.75;76.00
70338;BME280;57757;53.198;19.646;2022-12-07T08:53:58;99214.58;;;1.70;76.11
70338;BME280;57757;53.198;19.646;2022-12-07T08:56:28;99213.05;;;1.69;76.16
70338;BME280;57757;53.198;19.646;2022-12-07T08:58:57;99205.67;;;1.69;76.02
70338;BME280;57757;53.198;19.646;2022-12-07T09:01:25;99206.02;;;1.70;76.02
70338;BME280;57757;53.198;19.646;2022-12-07T09:03:53;99208.75;;;1.73;76.24
70338;BME280;57757;53.198;19.646;2022-12-07T09:06:21;99204.29;;;1.75;76.13
70338;BME280;57757;53.198;19.646;2022-12-07T09:08:52;99203.93;;;1.78;76.21
70338;BME280;57757;53.198;19.646;2022-12-07T09:11:23;99208.04;;;1.78;76.20
70338;BME280;57757;53.198;19.646;2022-12-07T09:13:55;99202.21;;;1.77;76.15
70338;BME280;57757;53.198;19.646;2022-12-07T09:16:23;99201.19;;;1.79;76.36
70338;BME280;57757;53.198;19.646;2022-12-07T09:18:50;99205.11;;;1.82;76.29
70338;BME280;57757;53.198;19.646;2022-12-07T09:21:18;99195.86;;;1.83;76.25
70338;BME280;57757;53.198;19.646;2022-12-07T09:23:46;99201.00;;;1.84;76.21
70338;BME280;57757;53.198;19.646;2022-12-07T09:26:13;99197.91;;;1.85;76.26
70338;BME280;57757;53.198;19.646;2022-12-07T09:28:41;99199.95;;;1.87;76.33
70338;BME280;57757;53.198;19.646;2022-12-07T09:31:08;99193.46;;;1.84;76.22
70338;BME280;57757;53.198;19.646;2022-12-07T09:34:00;99196.04;;;1.83;76.38
70338;BME280;57757;53.198;19.646;2022-12-07T09:36:28;99194.14;;;1.82;76.39
70338;BME280;57757;53.198;19.646;2022-12-07T09:38:56;99195.17;;;1.81;76.22
70338;BME280;57757;53.198;19.646;2022-12-07T09:41:25;99189.03;;;1.77;75.97
70338;BME280;57757;53.198;19.646;2022-12-07T09:44:02;99186.81;;;1.73;76.15
70338;BME280;57757;53.198;19.646;2022-12-07T09:46:37;99193.68;;;1.71;76.30
70338;BME280;57757;53.198;19.646;2022-12-07T09:49:11;99187.50;;;1.73;76.26
70338;BME280;57757;53.198;19.646;2022-12-07T09:51:40;99185.09;;;1.75;76.11
70338;BME280;57757;53.198;19.646;2022-12-07T09:54:15;99185.59;;;1.78;76.28
70338;BME280;57757;53.198;19.646;2022-12-07T09:56:44;99184.56;;;1.79;76.26
70338;BME280;57757;53.198;19.646;2022-12-07T09:59:17;99184.89;;;1.80;76.19
70338;BME280;57757;53.198;19.646;2022-12-07T10:01:47;99186.11;;;1.78;76.06
70338;BME280;57757;53.198;19.646;2022-12-07T10:04:20;99185.08;;;1.77;76.04
70338;BME280;57757;53.198;19.646;2022-12-07T10:06:50;99188.01;;;1.75;75.91
70338;BME280;57757;53.198;19.646;2022-12-07T10:09:21;99181.67;;;1.72;76.15
70338;BME280;57757;53.198;19.646;2022-12-07T10:12:06;99180.13;;;1.70;76.19
70338;BME280;57757;53.198;19.646;2022-12-07T10:14:38;99178.09;;;1.69;76.23
70338;BME280;57757;53.198;19.646;2022-12-07T10:17:34;99179.47;;;1.67;76.26
70338;BME280;57757;53.198;19.646;2022-12-07T10:20:21;99175.86;;;1.66;76.28
70338;BME280;57757;53.198;19.646;2022-12-07T10:23:14;99174.67;;;1.65;76.35
70338;BME280;57757;53.198;19.646;2022-12-07T10:25:42;99174.66;;;1.67;76.37
70338;BME280;57757;53.198;19.646;2022-12-07T10:28:17;99172.94;;;1.73;76.67
70338;BME280;57757;53.198;19.646;2022-12-07T10:31:01;99176.51;;;1.78;76.54
70338;BME280;57757;53.198;19.646;2022-12-07T10:33:33;99177.17;;;1.81;76.29
70338;BME280;57757;53.198;19.646;2022-12-07T10:36:17;99170.84;;;1.80;76.26
70338;BME280;57757;53.198;19.646;2022-12-07T10:38:48;99172.56;;;1.78;76.23
70338;BME280;57757;53.198;19.646;2022-12-07T10:41:17;99172.21;;;1.77;76.33
70338;BME280;57757;53.198;19.646;2022-12-07T10:43:50;99169.47;;;1.80;76.49
70338;BME280;57757;53.198;19.646;2022-12-07T10:49:43;99168.21;;;1.92;76.77
70338;BME280;57757;53.198;19.646;2022-12-07T10:52:18;99165.45;;;1.98;76.57
70338;BME280;57757;53.198;19.646;2022-12-07T10:57:30;99158.55;;;2.06;76.44
70338;BME280;57757;53.198;19.646;2022-12-07T11:03:21;99153.70;;;2.13;76.45
70338;BME280;57757;53.198;19.646;2022-12-07T11:05:41;99156.45;;;2.14;76.28
70338;BME280;57757;53.198;19.646;2022-12-07T11:08:37;99156.61;;;2.14;76.13
70338;BME280;57757;53.198;19.646;2022-12-07T11:11:13;99158.34;;;2.12;76.15
70338;BME280;57757;53.198;19.646;2022-12-07T11:22:04;99141.38;;;2.09;76.31
70338;BME280;57757;53.198;19.646;2022-12-07T11:24:52;99143.58;;;2.13;76.34
70338;BME280;57757;53.198;19.646;2022-12-07T11:27:35;99135.35;;;2.13;76.19
70338;BME280;57757;53.198;19.646;2022-12-07T11:30:13;99128.66;;;2.14;76.44
70338;BME280;57757;53.198;19.646;2022-12-07T11:32:49;99129.66;;;2.17;76.52
70338;BME280;57757;53.198;19.646;2022-12-07T11:38:15;99124.48;;;2.21;76.15
70338;BME280;57757;53.198;19.646;2022-12-07T11:40:49;99122.26;;;2.21;76.29
70338;BME280;57757;53.198;19.646;2022-12-07T11:43:22;99117.44;;;2.22;76.36
70338;BME280;57757;53.198;19.646;2022-12-07T11:46:10;99115.38;;;2.25;76.41
70338;BME280;57757;53.198;19.646;2022-12-07T11:51:21;99111.08;;;2.26;76.45
70338;BME280;57757;53.198;19.646;2022-12-07T11:53:59;99112.80;;;2.25;76.42
70338;BME280;57757;53.198;19.646;2022-12-07T11:56:30;99113.48;;;2.23;76.42
70338;BME280;57757;53.198;19.646;2022-12-07T11:59:39;99110.59;;;2.21;76.32
70338;BME280;57757;53.198;19.646;2022-12-07T12:02:16;99107.85;;;2.19;76.22
70338;BME280;57757;53.198;19.646;2022-12-07T12:07:34;99105.31;;;2.15;76.38
70338;BME280;57757;53.198;19.646;2022-12-07T12:13:49;99108.55;;;2.19;76.32
70338;BME280;57757;53.198;19.646;2022-12-07T12:22:17;99092.08;;;2.20;76.48
70338;BME280;57757;53.198;19.646;2022-12-07T12:24:51;99086.05;;;2.20;76.55
70338;BME280;57757;53.198;19.646;2022-12-07T12:27:26;99082.29;;;2.19;76.50
70338;BME280;57757;53.198;19.646;2022-12-07T12:29:59;99083.15;;;2.21;76.60
70338;BME280;57757;53.198;19.646;2022-12-07T12:32:38;99076.13;;;2.20;76.51
70338;BME280;57757;53.198;19.646;2022-12-07T12:35:34;99068.58;;;2.20;76.52
70338;BME280;57757;53.198;19.646;2022-12-07T12:38:25;99061.02;;;2.20;76.51
70338;BME280;57757;53.198;19.646;2022-12-07T12:40:55;99062.02;;;2.23;76.72
70338;BME280;57757;53.198;19.646;2022-12-07T12:43:39;99062.02;;;2.26;76.60
70338;BME280;57757;53.198;19.646;2022-12-07T12:55:01;99050.25;;;2.16;76.69
70338;BME280;57757;53.198;19.646;2022-12-07T12:57:34;99046.82;;;2.15;76.79
70338;BME280;57757;53.198;19.646;2022-12-07T13:00:18;99045.65;;;2.13;76.69
70338;BME280;57757;53.198;19.646;2022-12-07T13:02:55;99045.16;;;2.10;76.54
70338;BME280;57757;53.198;19.646;2022-12-07T13:05:28;99041.90;;;2.10;76.73
70338;BME280;57757;53.198;19.646;2022-12-07T13:08:23;99047.54;;;2.13;76.70
70338;BME280;57757;53.198;19.646;2022-12-07T13:11:54;99040.48;;;2.15;76.74
70338;BME280;57757;53.198;19.646;2022-12-07T13:20:01;99033.82;;;2.11;76.59
70338;BME280;57757;53.198;19.646;2022-12-07T13:25:02;99030.73;;;2.13;76.74
70338;BME280;57757;53.198;19.646;2022-12-07T13:27:33;99032.10;;;2.14;76.74
70338;BME280;57757;53.198;19.646;2022-12-07T13:32:54;99025.08;;;2.13;76.92
70338;BME280;57757;53.198;19.646;2022-12-07T13:35:34;99023.33;;;2.16;77.14
70338;BME280;57757;53.198;19.646;2022-12-07T13:38:05;99024.52;;;2.18;77.00
70338;BME280;57757;53.198;19.646;2022-12-07T13:40:33;99026.41;;;2.18;76.76
70338;BME280;57757;53.198;19.646;2022-12-07T13:43:03;99028.11;;;2.19;76.76
70338;BME280;57757;53.198;19.646;2022-12-07T13:45:33;99025.70;;;2.19;76.76
70338;BME280;57757;53.198;19.646;2022-12-07T13:51:03;99020.79;;;2.14;76.97
70338;BME280;57757;53.198;19.646;2022-12-07T13:53:31;99021.30;;;2.14;76.76
70338;BME280;57757;53.198;19.646;2022-12-07T13:56:01;99027.46;;;2.14;76.74
70338;BME280;57757;53.198;19.646;2022-12-07T13:58:30;99026.11;;;2.12;76.63
70338;BME280;57757;53.198;19.646;2022-12-07T14:00:59;99025.10;;;2.09;76.57
70338;BME280;57757;53.198;19.646;2022-12-07T14:03:30;99021.70;;;2.04;76.50
70338;BME280;57757;53.198;19.646;2022-12-07T14:08:32;99015.59;;;1.98;76.59
70338;BME280;57757;53.198;19.646;2022-12-07T14:11:00;99017.30;;;1.98;76.65
70338;BME280;57757;53.198;19.646;2022-12-07T14:13:32;99015.92;;;1.98;76.72
70338;BME280;57757;53.198;19.646;2022-12-07T14:16:03;99019.02;;;1.97;76.65
70338;BME280;57757;53.198;19.646;2022-12-07T14:23:38;99010.16;;;1.89;76.79
70338;BME280;57757;53.198;19.646;2022-12-07T14:26:28;99006.39;;;1.89;76.75
70338;BME280;57757;53.198;19.646;2022-12-07T14:29:49;99008.27;;;1.90;76.81
70338;BME280;57757;53.198;19.646;2022-12-07T14:32:26;99005.33;;;1.93;76.93
70338;BME280;57757;53.198;19.646;2022-12-07T14:35:00;99002.77;;;1.95;76.94
70338;BME280;57757;53.198;19.646;2022-12-07T14:37:29;99003.79;;;1.92;76.79
70338;BME280;57757;53.198;19.646;2022-12-07T14:39:57;98997.64;;;1.89;76.86
70338;BME280;57757;53.198;19.646;2022-12-07T14:42:28;99002.63;;;1.88;76.87
70338;BME280;57757;53.198;19.646;2022-12-07T14:44:58;98997.50;;;1.87;76.91
70338;BME280;57757;53.198;19.646;2022-12-07T14:47:26;98998.19;;;1.86;76.82
70338;BME280;57757;53.198;19.646;2022-12-07T14:50:16;99000.27;;;1.83;76.92
70338;BME280;57757;53.198;19.646;2022-12-07T14:52:49;99000.61;;;1.83;76.88
70338;BME280;57757;53.198;19.646;2022-12-07T14:55:38;98999.57;;;1.85;77.06
70338;BME280;57757;53.198;19.646;2022-12-07T14:58:06;98997.69;;;1.84;76.92
70338;BME280;57757;53.198;19.646;2022-12-07T15:00:33;99008.13;;;1.85;76.97
70338;BME280;57757;53.198;19.646;2022-12-07T15:03:01;99002.14;;;1.86;76.91
70338;BME280;57757;53.198;19.646;2022-12-07T15:05:29;99000.58;;;1.86;76.91
70338;BME280;57757;53.198;19.646;2022-12-07T15:07:56;98998.36;;;1.85;77.04
70338;BME280;57757;53.198;19.646;2022-12-07T15:10:30;98995.79;;;1.84;76.81